createdAt,value
2022-09-05T00:01:48.677Z,87.86
2022-09-05T00:04:25.449Z,87.29
2022-09-05T00:06:59.629Z,87.01
2022-09-05T00:09:51.793Z,86.59
2022-09-05T00:12:19.522Z,86.15
2022-09-05T00:15:16.246Z,86.55
2022-09-05T00:18:47.037Z,85.97
2022-09-05T00:24:37.605Z,85.54
2022-09-05T00:24:42.297Z,85.17
2022-09-05T00:26:47.213Z,85.60
2022-09-05T00:30:34.986Z,85.15
2022-09-05T00:32:18.604Z,85.35
2022-09-05T00:34:59.173Z,85.19
2022-09-05T00:37:32.164Z,84.75
2022-09-05T00:40:18.468Z,84.90
2022-09-05T00:42:49.855Z,84.42
2022-09-05T00:45:20.704Z,84.77
2022-09-05T00:47:50.575Z,84.96
2022-09-05T00:50:22.225Z,85.52
2022-09-05T00:53:07.384Z,85.39
2022-09-05T00:55:40.662Z,85.73
2022-09-05T00:58:24.133Z,85.84
2022-09-05T01:00:53.645Z,85.91
2022-09-05T01:03:33.563Z,86.50
2022-09-05T01:06:17.283Z,86.19
2022-09-05T01:08:55.825Z,86.44
2022-09-05T01:11:44.977Z,86.26
2022-09-05T01:14:40.853Z,86.83
2022-09-05T01:17:21.780Z,86.73
2022-09-05T01:20:19.710Z,87.35
2022-09-05T01:23:10.002Z,87.30
2022-09-05T01:25:54.825Z,87.79
2022-09-05T01:29:16.374Z,88.13
2022-09-05T01:31:19.921Z,87.29
2022-09-05T01:33:54.463Z,87.40
2022-09-05T01:36:31.553Z,87.40
2022-09-05T01:40:11.851Z,87.71
2022-09-05T01:41:55.644Z,87.05
2022-09-05T01:44:37.036Z,87.07
2022-09-05T01:47:25.564Z,87.80
2022-09-05T01:50:02.544Z,88.10
2022-09-05T01:52:47.732Z,88.21
2022-09-05T01:55:33.349Z,88.09
2022-09-05T01:58:14.807Z,88.23
2022-09-05T02:00:51.030Z,88.24
2022-09-05T02:03:22.497Z,88.88
2022-09-05T02:06:16.795Z,88.83
2022-09-05T02:08:55.723Z,88.67
2022-09-05T02:11:39.897Z,88.73
2022-09-05T02:14:12.170Z,88.48
2022-09-05T02:16:54.056Z,88.90
2022-09-05T02:19:25.448Z,89.04
2022-09-05T02:21:59.659Z,89.31
2022-09-05T02:24:29.492Z,89.35
2022-09-05T02:27:12.543Z,89.68
2022-09-05T02:30:08.379Z,89.57
2022-09-05T02:32:48.330Z,89.58
2022-09-05T02:35:21.108Z,89.78
2022-09-05T02:40:31.219Z,89.79
2022-09-05T02:45:18.520Z,90.12
2022-09-05T02:45:21.359Z,89.85
2022-09-05T02:46:31.177Z,89.76
2022-09-05T02:49:07.786Z,90.01
2022-09-05T02:57:27.839Z,90.04
2022-09-05T02:57:34.886Z,90.78
2022-09-05T02:58:06.605Z,91.01
2022-09-05T03:00:32.678Z,90.56
2022-09-05T03:03:17.254Z,90.79
2022-09-05T03:05:48.267Z,91.11
2022-09-05T03:08:31.464Z,91.14
2022-09-05T03:11:28.674Z,91.44
2022-09-05T03:14:34.665Z,91.87
2022-09-05T03:17:16.338Z,92.37
2022-09-05T03:20:26.061Z,92.14
2022-09-05T03:23:34.813Z,91.92
2022-09-05T03:26:28.245Z,92.40
2022-09-05T03:29:12.343Z,92.35
2022-09-05T03:32:09.158Z,92.39
2022-09-05T03:35:11.822Z,92.50
2022-09-05T03:38:06.105Z,92.57
2022-09-05T03:41:00.144Z,92.75
2022-09-05T03:43:37.841Z,92.82
2022-09-05T03:46:13.303Z,94.14
2022-09-05T03:50:57.705Z,93.62
2022-09-05T03:57:16.932Z,93.49
2022-09-05T03:57:18.318Z,93.46
2022-09-05T03:58:22.667Z,93.28
2022-09-05T04:01:52.529Z,93.20
2022-09-05T04:08:18.542Z,93.03
2022-09-05T04:08:28.210Z,92.81
2022-09-05T04:09:50.447Z,92.65
2022-09-05T04:12:20.418Z,92.64
2022-09-05T04:14:51.843Z,92.61
2022-09-05T04:17:25.679Z,92.50
2022-09-05T04:19:56.192Z,92.64
2022-09-05T04:22:29.490Z,92.89
2022-09-05T04:25:00.569Z,92.78
2022-09-05T04:27:35.883Z,93.55
2022-09-05T04:30:37.688Z,94.33
2022-09-05T04:33:09.905Z,94.43
2022-09-05T04:35:41.336Z,94.51
2022-09-05T04:38:14.311Z,94.84
2022-09-05T04:40:44.964Z,94.08
2022-09-05T04:43:20.579Z,94.58
2022-09-05T04:45:54.352Z,94.29
2022-09-05T04:48:26.037Z,94.14
2022-09-05T04:51:26.804Z,93.78
2022-09-05T04:54:12.786Z,93.59
2022-09-05T04:56:45.499Z,94.13
2022-09-05T05:01:54.482Z,94.46
2022-09-05T05:06:09.585Z,94.24
2022-09-05T05:06:16.670Z,94.29
2022-09-05T05:07:55.216Z,94.74
2022-09-05T05:11:48.464Z,94.69
2022-09-05T05:17:59.641Z,94.79
2022-09-05T05:18:09.960Z,95.54
2022-09-05T05:19:20.428Z,95.20
2022-09-05T05:21:50.844Z,94.36
2022-09-05T05:24:21.709Z,94.15
2022-09-05T05:26:56.985Z,93.12
2022-09-05T05:29:29.105Z,91.35
2022-09-05T05:31:59.084Z,90.80
2022-09-05T05:34:31.088Z,90.99
2022-09-05T05:37:01.251Z,90.75
2022-09-05T05:39:30.849Z,90.30
2022-09-05T05:41:59.293Z,90.14
2022-09-05T05:44:49.682Z,89.55
2022-09-05T05:47:31.433Z,89.32
2022-09-05T05:50:06.773Z,87.95
2022-09-05T05:53:03.255Z,86.57
2022-09-05T05:55:51.936Z,85.37
2022-09-05T05:58:50.820Z,84.02
2022-09-05T06:01:55.800Z,82.51
2022-09-05T06:05:06.904Z,82.41
2022-09-05T06:08:46.334Z,82.15
2022-09-05T06:14:49.079Z,82.14
2022-09-05T06:14:58.706Z,81.48
2022-09-05T06:17:36.677Z,81.33
2022-09-05T06:22:06.513Z,81.40
2022-09-05T06:23:51.734Z,81.48
2022-09-05T06:26:44.621Z,79.60
2022-09-05T06:29:21.243Z,78.60
2022-09-05T06:32:02.605Z,76.07
2022-09-05T06:35:00.101Z,73.78
2022-09-05T06:37:38.147Z,71.71
2022-09-05T06:40:16.941Z,70.95
2022-09-05T06:43:00.915Z,68.17
2022-09-05T06:45:39.153Z,68.17
2022-09-05T06:48:14.472Z,65.67
2022-09-05T06:51:18.079Z,63.95
2022-09-05T06:53:55.319Z,64.82
2022-09-05T06:56:33.727Z,63.27
2022-09-05T07:00:01.361Z,60.73
2022-09-05T07:02:59.250Z,62.07
2022-09-05T07:05:44.586Z,59.47
2022-09-05T07:08:36.002Z,56.49
2022-09-05T07:11:11.911Z,54.95
2022-09-05T07:13:56.964Z,53.55
2022-09-05T07:16:37.759Z,51.77
2022-09-05T07:19:18.364Z,51.50
2022-09-05T07:21:53.156Z,50.84
2022-09-05T07:24:47.576Z,51.37
2022-09-05T07:27:25.415Z,51.03
2022-09-05T07:30:01.778Z,49.72
2022-09-05T07:32:33.038Z,50.64
2022-09-05T07:35:02.765Z,50.92
2022-09-05T07:37:36.794Z,49.75
2022-09-05T07:40:27.310Z,51.31
2022-09-05T07:43:08.798Z,52.25
2022-09-05T07:45:50.832Z,50.34
2022-09-05T07:48:34.396Z,51.20
2022-09-05T07:54:07.353Z,50.71
2022-09-05T07:56:59.130Z,47.13
2022-09-05T07:57:00.663Z,49.01
2022-09-05T07:59:34.586Z,47.25
2022-09-05T08:02:04.398Z,46.30
2022-09-05T08:04:33.357Z,45.31
2022-09-05T08:07:47.879Z,46.18
2022-09-05T08:10:05.845Z,45.64
2022-09-05T08:12:44.985Z,45.79
2022-09-05T08:15:27.297Z,44.19
2022-09-05T08:18:19.564Z,46.40
2022-09-05T08:20:49.405Z,46.29
2022-09-05T08:23:33.299Z,46.05
2022-09-05T08:26:05.657Z,45.87
2022-09-05T08:28:40.413Z,47.45
2022-09-05T08:31:11.194Z,46.53
2022-09-05T08:33:40.913Z,49.46
2022-09-05T08:36:11.358Z,48.22
2022-09-05T08:38:41.199Z,47.42
2022-09-05T08:41:16.305Z,47.12
2022-09-05T08:46:36.321Z,45.67
2022-09-05T08:46:49.743Z,45.97
2022-09-05T08:49:38.753Z,45.72
2022-09-05T08:52:12.226Z,46.87
2022-09-05T08:54:49.641Z,45.60
2022-09-05T08:57:21.309Z,44.34
2022-09-05T09:00:20.612Z,45.54
2022-09-05T09:03:01.115Z,45.09
2022-09-05T09:06:12.843Z,45.07
2022-09-05T09:08:49.090Z,44.80
2022-09-05T09:11:27.281Z,43.29
2022-09-05T09:13:56.009Z,43.91
2022-09-05T09:16:30.853Z,45.44
2022-09-05T09:19:09.045Z,44.23
2022-09-05T09:21:41.922Z,43.94
2022-09-05T09:24:22.082Z,43.06
2022-09-05T09:26:55.930Z,44.76
2022-09-05T09:29:25.168Z,44.03
2022-09-05T09:32:00.679Z,44.39
2022-09-05T09:34:49.282Z,45.69
2022-09-05T09:37:59.412Z,46.36
2022-09-05T09:41:02.821Z,47.75
2022-09-05T09:43:52.569Z,45.53
2022-09-05T09:46:27.787Z,45.46
2022-09-05T09:49:21.586Z,44.65
2022-09-05T09:52:19.527Z,44.35
2022-09-05T09:55:38.979Z,43.84
2022-09-05T09:58:22.674Z,43.60
2022-09-05T10:00:54.657Z,41.69
2022-09-05T10:10:35.612Z,40.45
2022-09-05T10:10:40.340Z,42.23
2022-09-05T10:10:48.194Z,44.28
2022-09-05T10:13:09.208Z,43.31
2022-09-05T10:15:47.491Z,41.08
2022-09-05T10:18:31.904Z,41.06
2022-09-05T10:21:16.366Z,42.91
2022-09-05T10:24:00.497Z,44.58
2022-09-05T10:27:03.044Z,43.60
2022-09-05T10:29:52.898Z,43.58
2022-09-05T10:35:08.728Z,43.64
2022-09-05T10:35:25.737Z,44.87
2022-09-05T10:37:58.649Z,45.58
2022-09-05T10:40:28.081Z,45.93
2022-09-05T10:43:01.381Z,45.44
2022-09-05T10:45:38.543Z,44.42
2022-09-05T10:48:13.957Z,43.18
2022-09-05T10:50:44.315Z,45.60
2022-09-05T10:53:39.328Z,43.59
2022-09-05T10:56:13.355Z,44.11
2022-09-05T11:01:59.348Z,44.35
2022-09-05T11:02:22.382Z,44.20
2022-09-05T11:04:46.720Z,43.03
2022-09-05T11:07:29.224Z,43.20
2022-09-05T11:10:04.153Z,43.81
2022-09-05T11:12:40.473Z,43.36
2022-09-05T11:15:12.005Z,42.79
2022-09-05T11:17:42.120Z,42.98
2022-09-05T11:20:35.316Z,43.69
2022-09-05T11:23:05.043Z,44.45
2022-09-05T11:25:40.541Z,45.65
2022-09-05T11:28:14.843Z,45.23
2022-09-05T11:30:44.655Z,45.59
2022-09-05T11:39:50.250Z,48.12
2022-09-05T11:39:53.549Z,44.16
2022-09-05T11:40:30.158Z,42.70
2022-09-05T11:42:48.893Z,41.66
2022-09-05T11:45:49.795Z,42.19
2022-09-05T11:48:29.765Z,42.32
2022-09-05T11:51:34.406Z,42.97
2022-09-05T11:54:33.213Z,42.81
2022-09-05T11:57:33.073Z,40.70
2022-09-05T12:00:33.644Z,40.78
2022-09-05T12:03:05.845Z,39.77
2022-09-05T12:05:59.369Z,40.00
2022-09-05T12:08:36.248Z,40.28
2022-09-05T12:11:11.445Z,41.56
2022-09-05T12:13:45.405Z,40.92
2022-09-05T12:16:26.750Z,41.49
2022-09-05T12:19:19.232Z,41.50
2022-09-05T12:22:08.543Z,35.91
2022-09-05T12:25:23.761Z,32.79
2022-09-05T12:27:47.319Z,32.64
2022-09-05T12:30:30.097Z,31.90
2022-09-05T12:38:54.464Z,31.19
2022-09-05T12:41:14.862Z,31.67
2022-09-05T12:42:10.252Z,31.07
2022-09-05T12:42:24.100Z,29.69
2022-09-05T12:45:09.065Z,30.35
2022-09-05T12:47:54.784Z,31.82
2022-09-05T12:50:32.609Z,32.65
2022-09-05T12:53:06.717Z,33.47
2022-09-05T12:55:37.841Z,31.72
2022-09-05T13:02:57.471Z,31.44
2022-09-05T13:03:06.703Z,29.99
2022-09-05T13:04:20.719Z,29.85
2022-09-05T13:06:56.224Z,28.10
2022-09-05T13:09:29.417Z,27.53
2022-09-05T13:15:01.158Z,28.42
2022-09-05T13:15:21.897Z,26.51
2022-09-05T13:17:55.057Z,26.90
2022-09-05T13:20:34.783Z,26.64
2022-09-05T13:23:07.721Z,25.93
2022-09-05T13:25:36.986Z,26.00
2022-09-05T13:28:07.086Z,26.12
2022-09-05T13:33:41.540Z,24.65
2022-09-05T13:38:06.457Z,28.31
2022-09-05T13:38:07.593Z,26.25
2022-09-05T13:39:13.178Z,27.67
2022-09-05T13:41:44.554Z,27.59
2022-09-05T13:44:25.659Z,27.40
2022-09-05T13:47:00.803Z,28.19
2022-09-05T13:49:33.028Z,24.77
2022-09-05T13:52:13.461Z,25.03
2022-09-05T13:54:46.471Z,26.03
2022-09-05T13:57:36.950Z,26.23
2022-09-05T14:00:53.267Z,26.60
2022-09-05T14:03:55.469Z,26.01
2022-09-05T14:06:51.298Z,24.94
2022-09-05T14:09:39.437Z,25.60
2022-09-05T14:12:12.534Z,26.21
2022-09-05T14:17:54.197Z,28.33
2022-09-05T14:20:43.937Z,29.33
2022-09-05T14:23:17.681Z,28.85
2022-09-05T14:25:49.929Z,26.67
2022-09-05T14:28:24.615Z,29.21
2022-09-05T14:35:51.553Z,28.54
2022-09-05T14:37:55.739Z,29.38
2022-09-05T14:38:00.659Z,29.04
2022-09-05T14:39:57.487Z,31.30
2022-09-05T14:42:59.853Z,28.34
2022-09-05T14:45:40.151Z,28.06
2022-09-05T14:48:29.006Z,29.26
2022-09-05T14:51:25.249Z,29.50
2022-09-05T14:54:01.540Z,29.33
2022-09-05T14:58:03.381Z,30.07
2022-09-05T15:02:49.656Z,32.83
2022-09-05T15:02:52.076Z,31.71
2022-09-05T15:05:18.740Z,33.54
2022-09-05T15:07:47.300Z,33.45
2022-09-05T15:12:14.943Z,35.64
2022-09-05T15:13:25.979Z,35.34
2022-09-05T15:16:02.901Z,33.06
2022-09-05T15:18:32.181Z,33.00
2022-09-05T15:21:33.347Z,32.12
2022-09-05T15:24:04.647Z,33.54
2022-09-05T15:26:53.150Z,30.68
2022-09-05T15:29:24.573Z,28.33
2022-09-05T15:31:59.463Z,27.36
2022-09-05T15:34:38.987Z,27.41
2022-09-05T15:37:23.326Z,27.42
2022-09-05T15:40:01.819Z,26.01
2022-09-05T15:42:33.044Z,26.12
2022-09-05T15:45:10.507Z,26.13
2022-09-05T15:47:39.950Z,24.97
2022-09-05T15:50:21.370Z,26.37
2022-09-05T15:52:55.223Z,27.29
2022-09-05T15:55:25.910Z,26.74
2022-09-05T15:57:56.603Z,28.04
2022-09-05T16:00:42.021Z,28.73
2022-09-05T16:05:43.423Z,30.65
2022-09-05T16:10:27.814Z,33.66
2022-09-05T16:10:58.344Z,33.76
2022-09-05T16:12:14.260Z,32.75
2022-09-05T16:14:40.009Z,32.66
2022-09-05T16:23:14.958Z,33.29
2022-09-05T16:23:33.474Z,33.22
2022-09-05T16:23:39.366Z,33.94
2022-09-05T16:26:03.617Z,34.30
2022-09-05T16:28:33.276Z,36.06
2022-09-05T16:31:05.245Z,36.93
2022-09-05T16:33:34.563Z,35.66
2022-09-05T16:36:04.878Z,36.15
2022-09-05T16:38:49.043Z,37.00
2022-09-05T16:41:24.160Z,35.85
2022-09-05T16:43:55.360Z,37.73
2022-09-05T16:46:30.533Z,37.97
2022-09-05T16:49:02.053Z,37.26
2022-09-05T16:51:39.817Z,38.31
2022-09-05T16:54:14.522Z,38.44
2022-09-05T16:56:44.644Z,38.88
2022-09-05T16:59:15.342Z,39.47
2022-09-05T17:02:07.194Z,39.84
2022-09-05T17:05:05.805Z,39.81
2022-09-05T17:07:43.346Z,39.52
2022-09-05T17:10:13.030Z,40.60
2022-09-05T17:12:41.625Z,41.41
2022-09-05T17:15:12.162Z,42.94
2022-09-05T17:18:19.175Z,43.60
2022-09-05T17:20:40.115Z,45.51
2022-09-05T17:29:08.692Z,45.56
2022-09-05T17:29:25.567Z,46.74
2022-09-05T17:29:26.099Z,45.71
2022-09-05T17:31:57.809Z,47.55
2022-09-05T17:34:44.793Z,47.55
2022-09-05T17:37:22.582Z,47.72
2022-09-05T17:39:56.496Z,48.19
2022-09-05T17:42:39.139Z,48.23
2022-09-05T17:45:12.934Z,48.43
2022-09-05T17:47:53.885Z,48.40
2022-09-05T17:50:44.459Z,49.20
2022-09-05T17:53:25.631Z,48.80
2022-09-05T17:56:14.574Z,49.05
2022-09-05T17:59:07.061Z,49.84
2022-09-05T18:01:35.733Z,49.84
2022-09-05T18:04:16.084Z,50.13
2022-09-05T18:06:54.055Z,50.09
2022-09-05T18:09:59.000Z,50.90
2022-09-05T18:13:31.104Z,51.13
2022-09-05T18:16:03.390Z,51.54
2022-09-05T18:19:32.179Z,51.75
2022-09-05T18:21:25.109Z,51.91
2022-09-05T18:24:01.368Z,52.55
2022-09-05T18:26:29.514Z,52.18
2022-09-05T18:29:03.953Z,52.68
2022-09-05T18:31:59.460Z,53.36
2022-09-05T18:34:46.996Z,53.23
2022-09-05T18:37:59.274Z,53.74
2022-09-05T18:40:46.319Z,53.79
2022-09-05T18:43:20.182Z,53.82
2022-09-05T18:45:52.908Z,54.56
2022-09-05T18:48:29.944Z,54.60
2022-09-05T18:51:13.372Z,55.08
2022-09-05T18:53:47.518Z,54.10
2022-09-05T18:56:27.336Z,54.26
2022-09-05T18:59:10.732Z,54.49
2022-09-05T19:01:41.779Z,54.13
2022-09-05T19:04:16.052Z,54.06
2022-09-05T19:07:07.998Z,54.40
2022-09-05T19:09:37.439Z,54.97
2022-09-05T19:12:31.607Z,54.36
2022-09-05T19:14:57.829Z,55.38
2022-09-05T19:17:31.354Z,55.45
2022-09-05T19:20:32.027Z,55.78
2022-09-05T19:23:10.689Z,56.11
2022-09-05T19:25:42.138Z,56.31
2022-09-05T19:36:46.202Z,56.08
2022-09-05T19:36:46.356Z,56.70
2022-09-05T19:37:13.757Z,56.18
2022-09-05T19:37:22.585Z,56.16
2022-09-05T19:43:33.106Z,56.63
2022-09-05T19:47:37.378Z,56.58
2022-09-05T19:47:40.055Z,56.83
2022-09-05T19:48:17.517Z,57.36
2022-09-05T19:50:47.109Z,57.90
2022-09-05T19:53:17.593Z,57.82
2022-09-05T19:55:45.989Z,58.57
2022-09-05T19:58:29.186Z,58.65
2022-09-05T20:01:07.998Z,58.49
2022-09-05T20:03:41.066Z,58.47
2022-09-05T20:06:29.266Z,59.65
2022-09-05T20:09:09.649Z,59.46
2022-09-05T20:11:45.956Z,59.88
2022-09-05T20:14:19.893Z,59.76
2022-09-05T20:16:49.961Z,59.96
2022-09-05T20:19:28.433Z,59.98
2022-09-05T20:21:58.219Z,59.85
2022-09-05T20:24:27.714Z,60.02
2022-09-05T20:26:55.810Z,60.31
2022-09-05T20:29:43.526Z,60.46
2022-09-05T20:32:27.792Z,60.61
2022-09-05T20:37:58.631Z,61.05
2022-09-05T20:43:23.998Z,61.17
2022-09-05T20:43:32.446Z,61.40
2022-09-05T20:43:54.325Z,62.42
2022-09-05T20:48:23.961Z,62.43
2022-09-05T20:54:07.503Z,62.64
2022-09-05T20:54:20.957Z,62.78
2022-09-05T20:55:39.176Z,62.84
2022-09-05T20:57:48.419Z,63.02
2022-09-05T21:00:17.970Z,63.31
2022-09-05T21:02:55.771Z,64.21
2022-09-05T21:05:31.071Z,64.30
2022-09-05T21:08:16.605Z,64.45
2022-09-05T21:10:55.882Z,64.43
2022-09-05T21:13:26.626Z,65.44
2022-09-05T21:15:55.159Z,66.70
2022-09-05T21:18:26.111Z,66.67
2022-09-05T21:21:28.681Z,66.81
2022-09-05T21:24:06.302Z,67.72
2022-09-05T21:26:44.767Z,67.71
2022-09-05T21:29:16.356Z,67.45
2022-09-05T21:31:45.458Z,67.44
2022-09-05T21:34:17.035Z,67.44
2022-09-05T21:36:48.578Z,67.20
2022-09-05T21:39:25.107Z,67.12
2022-09-05T21:42:03.491Z,66.88
2022-09-05T21:47:34.315Z,66.78
2022-09-05T21:47:43.759Z,66.73
2022-09-05T21:50:30.694Z,67.29
2022-09-05T21:53:34.544Z,67.72
2022-09-05T21:59:17.641Z,68.59
2022-09-05T21:59:18.404Z,68.01
2022-09-05T22:01:51.162Z,68.41
2022-09-05T22:04:13.349Z,69.23
2022-09-05T22:06:40.960Z,70.02
2022-09-05T22:09:13.541Z,70.59
2022-09-05T22:11:41.914Z,70.60
2022-09-05T22:14:09.509Z,70.52
2022-09-05T22:16:44.762Z,69.92
2022-09-05T22:19:22.689Z,69.05
2022-09-05T22:21:52.024Z,68.96
2022-09-05T22:24:21.360Z,68.75
2022-09-05T22:27:11.407Z,68.64
2022-09-05T22:29:40.815Z,68.79
2022-09-05T22:32:08.705Z,68.74
2022-09-05T22:34:36.276Z,68.86
2022-09-05T22:37:03.906Z,69.23
2022-09-05T22:39:36.625Z,69.71
2022-09-05T22:42:07.629Z,69.16
2022-09-05T22:44:38.952Z,69.15
2022-09-05T22:47:07.025Z,69.24
2022-09-05T22:49:36.193Z,68.69
2022-09-05T22:52:04.990Z,68.21
2022-09-05T22:54:34.055Z,68.22
2022-09-05T22:57:02.321Z,67.39
2022-09-05T22:59:30.073Z,67.12
2022-09-05T23:01:57.907Z,67.14
2022-09-05T23:04:25.881Z,67.49
2022-09-05T23:06:53.817Z,67.48
2022-09-05T23:09:21.589Z,66.95
2022-09-05T23:11:50.613Z,67.03
2022-09-05T23:14:18.250Z,67.20
2022-09-05T23:16:45.908Z,67.37
2022-09-05T23:19:13.572Z,67.04
2022-09-05T23:21:41.225Z,67.42
2022-09-05T23:24:08.948Z,67.68
2022-09-05T23:26:36.638Z,67.63
2022-09-05T23:29:05.753Z,66.96
2022-09-05T23:31:33.472Z,66.68
2022-09-05T23:34:01.235Z,66.56
2022-09-05T23:36:29.009Z,66.64
2022-09-05T23:38:56.741Z,66.60
2022-09-05T23:41:24.547Z,66.49
2022-09-05T23:43:52.239Z,66.38
2022-09-05T23:46:21.280Z,66.12
2022-09-05T23:48:49.050Z,66.38
2022-09-05T23:51:16.740Z,65.96
2022-09-05T23:53:45.958Z,66.01
2022-09-05T23:56:13.684Z,65.40
2022-09-05T23:58:41.384Z,65.75
